createdAt,value
2023-04-27T00:04:21.261Z,94064.88
2023-04-27T00:09:24.219Z,94076.06
2023-04-27T00:14:28.873Z,94079.91
2023-04-27T00:19:30.793Z,94074.88
2023-04-27T00:24:32.826Z,94066.00
2023-04-27T00:29:35.076Z,94056.75
2023-04-27T00:34:37.745Z,94057.34
2023-04-27T00:39:41.144Z,94048.47
2023-04-27T00:44:43.578Z,94047.31
2023-04-27T00:49:46.356Z,94045.31
2023-04-27T00:54:51.143Z,94053.91
2023-04-27T00:59:55.831Z,94044.59
2023-04-27T01:04:58.189Z,94039.47
2023-04-27T01:10:00.529Z,94044.53
2023-04-27T01:15:02.751Z,94037.03
2023-04-27T01:20:08.020Z,94046.31
2023-04-27T01:25:13.190Z,94049.34
2023-04-27T01:30:16.393Z,94047.84
2023-04-27T01:35:18.583Z,94049.34
2023-04-27T01:40:21.254Z,94039.25
2023-04-27T01:45:24.772Z,94048.06
2023-04-27T01:50:28.764Z,94059.09
2023-04-27T01:55:31.529Z,94055.09
2023-04-27T02:00:34.016Z,94062.69
2023-04-27T02:05:36.637Z,94057.25
2023-04-27T02:10:38.774Z,94064.13
2023-04-27T02:15:41.340Z,94072.22
2023-04-27T02:20:43.604Z,94070.66
2023-04-27T02:25:47.131Z,94070.19
2023-04-27T02:30:49.813Z,94061.97
2023-04-27T02:35:51.681Z,94070.78
2023-04-27T02:40:55.231Z,94065.28
2023-04-27T02:46:03.450Z,94067.50
2023-04-27T02:51:07.085Z,94049.47
2023-04-27T02:56:09.084Z,94062.84
2023-04-27T03:01:11.232Z,94070.41
2023-04-27T03:06:13.414Z,94068.81
2023-04-27T03:11:15.441Z,94050.22
2023-04-27T03:16:17.857Z,94062.59
2023-04-27T03:21:21.761Z,94069.38
2023-04-27T03:26:24.586Z,94070.72
2023-04-27T03:31:27.085Z,94078.31
2023-04-27T03:36:29.547Z,94067.00
2023-04-27T03:41:31.841Z,94076.50
2023-04-27T03:46:35.042Z,94070.41
2023-04-27T03:51:38.732Z,94066.94
2023-04-27T03:56:41.087Z,94062.81
2023-04-27T04:01:43.844Z,94058.91
2023-04-27T04:06:46.138Z,94058.81
2023-04-27T04:11:48.242Z,94055.72
2023-04-27T04:16:51.228Z,94050.78
2023-04-27T04:21:57.407Z,94047.75
2023-04-27T04:27:07.498Z,94055.81
2023-04-27T04:32:09.865Z,94037.69
2023-04-27T04:37:13.207Z,94040.41
2023-04-27T04:42:16.175Z,94039.63
2023-04-27T04:47:19.184Z,94052.69
2023-04-27T04:52:21.957Z,94046.91
2023-04-27T04:57:24.069Z,94038.84
2023-04-27T05:02:26.452Z,94040.41
2023-04-27T05:07:29.134Z,94044.94
2023-04-27T05:12:31.460Z,94042.97
2023-04-27T05:17:33.776Z,94042.94
2023-04-27T05:22:36.826Z,94047.03
2023-04-27T05:27:41.278Z,94052.66
2023-04-27T05:32:43.302Z,94052.88
2023-04-27T05:37:45.648Z,94064.03
2023-04-27T05:42:47.996Z,94076.41
2023-04-27T05:47:50.218Z,94070.34
2023-04-27T05:52:53.925Z,94070.50
2023-04-27T05:58:07.024Z,94069.78
2023-04-27T06:03:13.354Z,94075.22
2023-04-27T06:08:15.878Z,94085.56
2023-04-27T06:13:18.478Z,94094.34
2023-04-27T06:18:20.598Z,94099.38
2023-04-27T06:23:23.244Z,94105.22
2023-04-27T06:28:25.688Z,94089.19
2023-04-27T06:33:27.846Z,94095.13
2023-04-27T06:38:30.024Z,94084.72
2023-04-27T06:43:32.107Z,94098.84
2023-04-27T06:48:37.331Z,94104.19
2023-04-27T06:53:40.806Z,94113.19
2023-04-27T06:58:42.940Z,94091.16
2023-04-27T07:03:46.806Z,94101.59
2023-04-27T07:08:50.389Z,94096.22
2023-04-27T07:13:53.113Z,94107.56
2023-04-27T07:18:55.127Z,94102.41
2023-04-27T07:23:57.404Z,94099.34
2023-04-27T07:28:59.616Z,94082.72
2023-04-27T07:34:01.545Z,94107.25
2023-04-27T07:39:05.060Z,94114.03
2023-04-27T07:44:07.016Z,94121.41
2023-04-27T07:49:08.951Z,94114.91
2023-04-27T07:54:11.205Z,94104.03
2023-04-27T07:59:15.908Z,94106.97
2023-04-27T08:04:19.187Z,94106.34
2023-04-27T08:09:21.591Z,94111.06
2023-04-27T08:14:24.089Z,94115.00
2023-04-27T08:19:26.265Z,94108.84
2023-04-27T08:24:28.385Z,94117.38
2023-04-27T08:29:30.861Z,94113.91
2023-04-27T08:34:33.254Z,94107.00
2023-04-27T08:39:35.339Z,94120.88
2023-04-27T08:44:44.003Z,94098.88
2023-04-27T08:49:46.067Z,94103.28
2023-04-27T08:54:48.092Z,94099.34
2023-04-27T09:00:00.426Z,94110.97
2023-04-27T09:05:03.118Z,94108.25
2023-04-27T09:10:06.254Z,94092.13
2023-04-27T09:15:08.939Z,94112.81
2023-04-27T09:20:13.559Z,94108.66
2023-04-27T09:25:29.858Z,94105.59
2023-04-27T09:30:31.987Z,94098.28
2023-04-27T09:35:34.455Z,94089.00
2023-04-27T09:40:43.575Z,94102.97
2023-04-27T09:45:58.852Z,94101.56
2023-04-27T09:51:09.300Z,94107.69
2023-04-27T09:56:48.711Z,94098.97
2023-04-27T10:01:58.142Z,94102.00
2023-04-27T10:07:01.380Z,94099.59
2023-04-27T10:12:21.660Z,94093.03
2023-04-27T10:17:30.924Z,94092.63
2023-04-27T10:22:39.623Z,94094.81
2023-04-27T10:27:41.740Z,94094.03
2023-04-27T10:33:01.223Z,94078.25
2023-04-27T10:38:18.737Z,94070.13
2023-04-27T10:43:27.614Z,94060.09
2023-04-27T10:48:30.632Z,94061.59
2023-04-27T10:53:36.972Z,94061.50
2023-04-27T11:03:49.143Z,94056.13
2023-04-27T11:08:51.768Z,94064.19
2023-04-27T11:13:53.974Z,94047.25
2023-04-27T11:18:57.429Z,94045.69
2023-04-27T11:24:08.530Z,94043.47
2023-04-27T11:29:12.619Z,94026.00
2023-04-27T11:34:19.691Z,94036.38
2023-04-27T11:39:23.448Z,94016.28
2023-04-27T11:44:27.755Z,94034.41
2023-04-27T11:49:29.964Z,94030.38
2023-04-27T11:54:32.563Z,94033.38
2023-04-27T11:59:34.361Z,94017.72
2023-04-27T12:04:36.802Z,94018.34
2023-04-27T12:09:38.826Z,94002.88
2023-04-27T12:14:41.497Z,94005.88
2023-04-27T12:19:43.716Z,94002.25
2023-04-27T12:24:45.690Z,93990.47
2023-04-27T12:29:47.668Z,94005.78
2023-04-27T12:34:49.663Z,93999.41
2023-04-27T12:39:51.946Z,93997.75
2023-04-27T12:44:55.960Z,93998.97
2023-04-27T12:49:58.149Z,93988.56
2023-04-27T12:55:00.126Z,93986.56
2023-04-27T13:00:06.213Z,93985.19
2023-04-27T13:05:09.836Z,93984.59
2023-04-27T13:10:12.375Z,93974.97
2023-04-27T13:15:14.844Z,93977.31
2023-04-27T13:20:17.436Z,93974.78
2023-04-27T13:25:20.260Z,93977.53
2023-04-27T13:30:22.221Z,93950.34
2023-04-27T13:35:25.065Z,93945.72
2023-04-27T13:40:27.393Z,93951.88
2023-04-27T13:45:29.629Z,93945.44
2023-04-27T13:50:32.204Z,93945.22
2023-04-27T13:55:35.487Z,93941.03
2023-04-27T14:00:38.157Z,93929.28
2023-04-27T14:05:39.965Z,93932.19
2023-04-27T14:10:42.254Z,93925.88
2023-04-27T14:15:44.549Z,93921.22
2023-04-27T14:20:46.676Z,93919.13
2023-04-27T14:25:48.690Z,93911.63
2023-04-27T14:30:50.868Z,93906.25
2023-04-27T14:35:53.199Z,93903.28
2023-04-27T14:40:55.281Z,93902.44
2023-04-27T14:46:05.091Z,93901.53
2023-04-27T14:51:11.814Z,93894.75
2023-04-27T14:56:13.848Z,93884.16
2023-04-27T15:01:18.051Z,93886.66
2023-04-27T15:06:22.099Z,93871.25
2023-04-27T15:11:24.731Z,93877.16
2023-04-27T15:16:27.049Z,93858.06
2023-04-27T15:21:42.102Z,93856.56
2023-04-27T15:26:51.045Z,93850.19
2023-04-27T15:31:53.601Z,93858.22
2023-04-27T15:36:56.020Z,93845.75
2023-04-27T15:42:01.013Z,93849.72
2023-04-27T15:47:03.491Z,93817.19
2023-04-27T15:52:05.630Z,93817.03
2023-04-27T15:57:08.059Z,93839.31
2023-04-27T16:02:10.305Z,93831.09
2023-04-27T16:07:12.425Z,93830.63
2023-04-27T16:12:14.553Z,93829.69
2023-04-27T16:17:18.830Z,93827.38
2023-04-27T16:22:22.225Z,93824.88
2023-04-27T16:27:24.324Z,93822.81
2023-04-27T16:32:26.881Z,93831.25
2023-04-27T16:37:29.124Z,93823.59
2023-04-27T16:42:31.223Z,93811.06
2023-04-27T16:47:33.898Z,93812.75
2023-04-27T16:52:36.091Z,93815.13
2023-04-27T16:57:41.509Z,93817.50
2023-04-27T17:02:44.222Z,93812.00
2023-04-27T17:07:46.482Z,93816.50
2023-04-27T17:12:48.569Z,93794.59
2023-04-27T17:17:50.941Z,93805.88
2023-04-27T17:22:53.356Z,93790.88
2023-04-27T17:27:56.663Z,93803.75
2023-04-27T17:32:59.071Z,93797.28
2023-04-27T17:38:01.214Z,93808.91
2023-04-27T17:43:03.203Z,93784.28
2023-04-27T17:48:07.035Z,93805.25
2023-04-27T17:53:09.112Z,93813.06
2023-04-27T17:58:11.617Z,93807.59
2023-04-27T18:03:13.891Z,93803.44
2023-04-27T18:08:20.421Z,93806.69
2023-04-27T18:13:22.482Z,93808.81
2023-04-27T18:18:25.517Z,93803.84
2023-04-27T18:23:27.768Z,93801.59
2023-04-27T18:28:29.763Z,93818.44
2023-04-27T18:33:32.173Z,93807.81
2023-04-27T18:38:34.896Z,93813.41
2023-04-27T18:43:37.232Z,93811.06
2023-04-27T18:48:39.102Z,93806.31
2023-04-27T18:53:41.117Z,93813.50
2023-04-27T18:58:43.225Z,93808.31
2023-04-27T19:03:45.382Z,93815.31
2023-04-27T19:08:47.604Z,93821.81
2023-04-27T19:13:51.028Z,93811.97
2023-04-27T19:18:54.923Z,93823.41
2023-04-27T19:23:57.065Z,93821.09
2023-04-27T19:28:59.505Z,93825.53
2023-04-27T19:34:04.226Z,93834.31
2023-04-27T19:39:07.107Z,93825.75
2023-04-27T19:44:09.242Z,93828.16
2023-04-27T19:49:11.263Z,93838.81
2023-04-27T19:54:13.411Z,93849.47
2023-04-27T19:59:15.617Z,93846.13
2023-04-27T20:04:18.718Z,93841.75
2023-04-27T20:09:23.360Z,93842.81
2023-04-27T20:14:29.662Z,93843.72
2023-04-27T20:19:32.472Z,93850.81
2023-04-27T20:24:35.823Z,93855.66
2023-04-27T20:29:38.230Z,93862.47
2023-04-27T20:34:40.309Z,93866.94
2023-04-27T20:39:42.390Z,93867.91
2023-04-27T20:44:55.351Z,93880.16
2023-04-27T20:49:57.229Z,93865.91
2023-04-27T20:55:01.224Z,93869.22
2023-04-27T21:00:04.902Z,93883.66
2023-04-27T21:05:07.654Z,93876.56
2023-04-27T21:10:13.900Z,93886.69
2023-04-27T21:15:16.122Z,93872.56
2023-04-27T21:20:18.580Z,93883.09
2023-04-27T21:25:22.999Z,93887.44
2023-04-27T21:30:28.530Z,93887.91
2023-04-27T21:35:31.285Z,93881.16
2023-04-27T21:40:33.402Z,93885.88
2023-04-27T21:45:36.182Z,93894.38
2023-04-27T21:50:38.394Z,93891.66
2023-04-27T21:55:40.717Z,93890.19
2023-04-27T22:00:43.289Z,93888.31
2023-04-27T22:05:45.839Z,93896.56
2023-04-27T22:10:48.282Z,93893.25
2023-04-27T22:15:50.339Z,93894.66
2023-04-27T22:20:54.539Z,93893.59
2023-04-27T22:25:56.565Z,93892.47
2023-04-27T22:31:00.812Z,93890.56
2023-04-27T22:36:02.952Z,93895.22
2023-04-27T22:41:05.359Z,93873.63
2023-04-27T22:46:07.760Z,93889.41
2023-04-27T22:51:10.557Z,93899.84
2023-04-27T22:56:12.932Z,93904.19
2023-04-27T23:01:15.028Z,93903.25
2023-04-27T23:06:17.078Z,93897.53
2023-04-27T23:11:19.145Z,93911.88
2023-04-27T23:16:21.951Z,93914.59
2023-04-27T23:21:25.338Z,93914.63
2023-04-27T23:26:27.180Z,93911.94
2023-04-27T23:31:29.612Z,93910.84
2023-04-27T23:36:31.789Z,93904.78
2023-04-27T23:41:33.989Z,93921.81
2023-04-27T23:46:36.276Z,93922.19
2023-04-27T23:51:38.418Z,93914.09
2023-04-27T23:56:40.932Z,93905.66
